Time;durP1;ratioP1;P1;durP2;ratioP2;P2;SDS_P1;SDS_P2;PMS_P1;PMS_P2;Temp;Humidity;BMP_temperature;BMP_pressure;BME280_temperature;BME280_humidity;BME280_pressure;Samples;Min_cycle;Max_cycle;Signal;HPM_P1;HPM_P2
2023/04/08 00:02:18;;;;;;;26.43;12.87;;;9.00;99.90;;;;;;4947201;28;37783;-76
2023/04/08 00:04:45;;;;;;;27.67;13.13;;;8.90;99.90;;;;;;4934619;28;38428;-75
2023/04/08 00:07:11;;;;;;;26.23;12.90;;;9.00;99.90;;;;;;4922486;28;37764;-76
2023/04/08 00:09:37;;;;;;;32.30;14.17;;;9.00;99.90;;;;;;4951285;28;39660;-76
2023/04/08 00:12:04;;;;;;;27.97;15.33;;;9.00;99.90;;;;;;4934071;28;37791;-76
2023/04/08 00:14:30;;;;;;;27.10;15.07;;;9.00;99.90;;;;;;4942825;28;38865;-76
2023/04/08 00:16:56;;;;;;;28.73;14.50;;;9.00;99.90;;;;;;4927100;28;37998;-76
2023/04/08 00:19:22;;;;;;;23.23;13.87;;;9.00;99.90;;;;;;4946805;28;39145;-76
2023/04/08 00:21:48;;;;;;;24.00;14.13;;;9.00;99.90;;;;;;4932093;28;37229;-76
2023/04/08 00:24:15;;;;;;;27.03;15.10;;;9.00;99.90;;;;;;4955232;28;38430;-76
2023/04/08 00:26:41;;;;;;;29.50;14.63;;;9.00;99.90;;;;;;4947982;28;38564;-76
2023/04/08 00:29:07;;;;;;;35.07;17.60;;;9.00;99.90;;;;;;4931565;28;38442;-76
2023/04/08 00:31:33;;;;;;;27.60;15.67;;;9.00;99.90;;;;;;4948470;28;38128;-76
2023/04/08 00:33:59;;;;;;;35.10;18.47;;;9.00;99.90;;;;;;4944474;28;40766;-76
2023/04/08 00:36:26;;;;;;;33.50;17.50;;;9.00;99.90;;;;;;4927677;28;38955;-76
2023/04/08 00:38:52;;;;;;;32.93;18.03;;;9.00;99.90;;;;;;4943634;28;38405;-76
2023/04/08 00:41:18;;;;;;;36.37;19.43;;;9.00;99.90;;;;;;4945534;28;36710;-76
2023/04/08 00:43:44;;;;;;;31.93;17.60;;;9.00;99.90;;;;;;4927914;28;37820;-75
2023/04/08 00:46:11;;;;;;;29.60;18.57;;;9.00;99.90;;;;;;4918055;28;38809;-76
2023/04/08 00:48:37;;;;;;;29.53;18.37;;;9.00;99.90;;;;;;4928951;28;37489;-76
2023/04/08 00:51:03;;;;;;;34.40;18.93;;;9.10;99.90;;;;;;4950857;28;37260;-75
2023/04/08 00:53:30;;;;;;;31.80;19.67;;;9.10;99.90;;;;;;4952196;28;39555;-76
2023/04/08 00:55:56;;;;;;;33.90;19.47;;;9.10;99.90;;;;;;4950523;28;39796;-77
2023/04/08 00:58:23;;;;;;;33.87;19.63;;;9.10;99.90;;;;;;4943465;28;38686;-75
2023/04/08 01:03:47;;;;;;;35.27;20.97;;;9.00;99.90;;;;;;5092344;23;20060;-80
2023/04/08 01:06:31;;;;;;;38.63;22.80;;;9.00;99.90;;;;;;4931208;28;38053;-80
2023/04/08 01:08:59;;;;;;;39.07;22.13;;;9.00;99.90;;;;;;4932562;28;38527;-80
2023/04/08 01:11:28;;;;;;;45.90;25.43;;;9.10;99.90;;;;;;4927298;28;38027;-80
2023/04/08 01:13:56;;;;;;;38.53;24.53;;;9.10;99.90;;;;;;4932985;28;37608;-79
2023/04/08 01:16:24;;;;;;;40.13;24.43;;;9.10;99.90;;;;;;4930320;28;38716;-80
2023/04/08 01:18:52;;;;;;;46.17;24.53;;;9.10;99.90;;;;;;4929696;28;37150;-79
2023/04/08 01:21:20;;;;;;;38.73;23.67;;;9.10;99.90;;;;;;4932566;28;36522;-79
2023/04/08 01:24:11;;;;;;;36.57;24.97;;;9.10;99.90;;;;;;4945515;28;38657;-78
2023/04/08 01:26:39;;;;;;;46.87;25.83;;;9.10;99.90;;;;;;4930448;28;47096;-78
2023/04/08 01:29:07;;;;;;;42.93;25.47;;;9.10;99.90;;;;;;4926619;28;38191;-79
2023/04/08 01:31:36;;;;;;;42.13;25.30;;;9.00;99.90;;;;;;4929302;28;37304;-79
2023/04/08 01:34:03;;;;;;;47.17;25.93;;;9.00;99.90;;;;;;4925188;28;38545;-78
2023/04/08 01:36:31;;;;;;;49.00;26.47;;;9.00;99.90;;;;;;4927408;28;38583;-79
2023/04/08 01:39:00;;;;;;;45.00;26.27;;;9.00;99.90;;;;;;4929969;28;38749;-79
2023/04/08 01:41:28;;;;;;;45.87;25.77;;;9.00;99.90;;;;;;4927507;28;47697;-79
2023/04/08 01:43:55;;;;;;;43.90;26.20;;;9.00;99.90;;;;;;4928947;28;39434;-78
2023/04/08 01:46:21;;;;;;;40.97;25.63;;;9.00;99.90;;;;;;4925666;28;38457;-79
2023/04/08 01:48:48;;;;;;;51.50;28.37;;;9.00;99.90;;;;;;4926938;28;39629;-79
2023/04/08 01:51:16;;;;;;;42.37;24.83;;;9.00;99.90;;;;;;4924118;28;36232;-79
2023/04/08 01:53:43;;;;;;;41.23;26.50;;;9.00;99.90;;;;;;4929294;28;38039;-79
2023/04/08 01:56:12;;;;;;;47.90;28.30;;;9.00;99.90;;;;;;4934899;28;37634;-79
2023/04/08 01:58:42;;;;;;;39.43;26.27;;;9.00;99.90;;;;;;4935646;28;37331;-79
2023/04/08 02:01:15;;;;;;;49.07;27.67;;;9.00;99.90;;;;;;4929262;28;36420;-79
2023/04/08 02:03:43;;;;;;;49.93;27.53;;;9.00;99.90;;;;;;4931931;28;38253;-79
2023/04/08 02:06:09;;;;;;;48.90;28.23;;;9.00;99.90;;;;;;4927290;28;37227;-79
2023/04/08 02:08:35;;;;;;;42.83;27.23;;;9.00;99.90;;;;;;4924839;28;37454;-79
2023/04/08 02:11:02;;;;;;;45.93;27.57;;;9.00;99.90;;;;;;4929109;28;38863;-79
2023/04/08 02:13:30;;;;;;;40.17;25.73;;;9.00;99.90;;;;;;4926939;28;38901;-78
2023/04/08 02:16:13;;;;;;;43.80;28.13;;;9.00;99.90;;;;;;4928300;28;39477;-79
2023/04/08 02:18:42;;;;;;;;;;;9.00;99.90;;;;;;4930552;28;48807;-78
2023/04/08 02:21:12;;;;;;;45.57;27.70;;;9.00;99.90;;;;;;4930135;28;37944;-78
2023/04/08 02:23:40;;;;;;;45.77;26.47;;;9.00;99.90;;;;;;4930478;28;38668;-79
2023/04/08 02:26:13;;;;;;;42.87;26.67;;;8.90;99.90;;;;;;4923498;28;38852;-79
2023/04/08 02:28:40;;;;;;;45.53;27.63;;;8.90;99.90;;;;;;4925382;28;37588;-78
2023/04/08 02:31:12;;;;;;;47.27;28.17;;;8.90;99.90;;;;;;4923385;28;35844;-79
2023/04/08 02:33:39;;;;;;;38.33;25.83;;;8.80;99.90;;;;;;4922902;28;38899;-78
2023/04/08 02:36:06;;;;;;;46.80;27.13;;;8.70;99.90;;;;;;4926294;28;38774;-79
2023/04/08 02:38:32;;;;;;;44.57;27.47;;;8.70;99.90;;;;;;4943453;28;37463;-79
2023/04/08 02:40:58;;;;;;;50.73;28.07;;;8.60;99.90;;;;;;4930794;28;36528;-79
2023/04/08 02:43:31;;;;;;;50.50;30.60;;;8.60;99.90;;;;;;4929684;28;38679;-79
2023/04/08 02:46:06;;;;;;;46.72;26.45;;;8.70;99.90;;;;;;4931175;28;37638;-79
2023/04/08 02:48:32;;;;;;;44.57;26.40;;;8.70;99.90;;;;;;4927153;28;47301;-79
2023/04/08 02:50:58;;;;;;;41.13;26.70;;;8.70;99.90;;;;;;4930127;28;36199;-79
2023/04/08 02:53:24;;;;;;;48.43;28.37;;;8.80;99.90;;;;;;4925559;28;38432;-79
2023/04/08 02:55:51;;;;;;;45.77;28.33;;;8.80;99.90;;;;;;4926675;28;38972;-79
2023/04/08 02:58:17;;;;;;;40.20;25.50;;;8.80;99.90;;;;;;4929633;28;38474;-79
2023/04/08 03:00:43;;;;;;;48.50;28.40;;;8.80;99.90;;;;;;4929501;28;37656;-79
2023/04/08 03:03:09;;;;;;;52.93;29.83;;;8.80;99.90;;;;;;4926102;28;39773;-78
2023/04/08 03:05:36;;;;;;;50.20;29.10;;;8.80;99.90;;;;;;4929015;28;38645;-78
2023/04/08 03:08:02;;;;;;;45.90;29.00;;;8.70;99.90;;;;;;4937412;28;38424;-78
2023/04/08 03:10:28;;;;;;;47.27;28.57;;;8.60;99.90;;;;;;4932304;28;36196;-78
2023/04/08 03:12:54;;;;;;;48.57;29.27;;;8.50;99.90;;;;;;4948592;28;38995;-78
2023/04/08 03:15:20;;;;;;;48.63;29.93;;;8.50;99.90;;;;;;4927331;28;37994;-78
2023/04/08 03:17:46;;;;;;;47.83;28.13;;;8.60;99.90;;;;;;4930785;28;39300;-79
2023/04/08 03:20:12;;;;;;;56.97;31.40;;;8.60;99.90;;;;;;4930572;28;37497;-78
2023/04/08 03:22:38;;;;;;;53.47;31.17;;;8.70;99.90;;;;;;4928193;28;38424;-78
2023/04/08 03:25:05;;;;;;;52.20;29.33;;;8.70;99.90;;;;;;4931550;28;38844;-79
2023/04/08 03:27:31;;;;;;;51.70;29.73;;;8.80;99.90;;;;;;4928617;28;38740;-79
2023/04/08 03:29:57;;;;;;;44.13;27.73;;;8.80;99.90;;;;;;4925916;28;37425;-79
2023/04/08 03:32:24;;;;;;;51.77;29.53;;;8.90;99.90;;;;;;4933424;28;39560;-79
2023/04/08 03:34:50;;;;;;;55.47;31.40;;;8.90;99.90;;;;;;4933797;28;38829;-79
2023/04/08 03:37:17;;;;;;;44.77;29.20;;;8.90;99.90;;;;;;4948670;28;37862;-79
2023/04/08 03:39:43;;;;;;;51.63;31.73;;;8.90;99.90;;;;;;4931642;28;36929;-77
2023/04/08 03:42:09;;;;;;;47.50;28.83;;;9.00;99.90;;;;;;4930306;28;38213;-79
2023/04/08 03:44:35;;;;;;;47.40;30.70;;;8.90;99.90;;;;;;4931100;28;37620;-79
2023/04/08 03:47:01;;;;;;;51.33;29.77;;;8.90;99.90;;;;;;4932077;28;37802;-78
2023/04/08 03:49:27;;;;;;;55.63;32.00;;;9.00;99.90;;;;;;4937965;28;48731;-79
2023/04/08 03:51:53;;;;;;;52.13;31.10;;;9.00;99.90;;;;;;4934334;28;37618;-78
2023/04/08 03:54:20;;;;;;;53.83;32.07;;;9.00;99.90;;;;;;4946415;28;37603;-78
2023/04/08 03:56:46;;;;;;;54.47;31.83;;;9.00;99.90;;;;;;4928838;28;39038;-79
2023/04/08 03:59:12;;;;;;;54.23;30.70;;;9.00;99.90;;;;;;4925606;28;35281;-79
2023/04/08 04:01:38;;;;;;;54.10;31.27;;;9.00;99.90;;;;;;4929259;28;39012;-79
2023/04/08 04:04:04;;;;;;;56.80;32.43;;;9.00;99.90;;;;;;4931177;28;37769;-79
2023/04/08 04:06:30;;;;;;;55.87;32.57;;;9.00;99.90;;;;;;4934805;28;38585;-78
2023/04/08 04:08:56;;;;;;;54.37;31.67;;;9.00;99.90;;;;;;4949285;28;36595;-79
2023/04/08 04:11:22;;;;;;;49.00;29.90;;;9.00;99.90;;;;;;4945479;28;36813;-80
2023/04/08 04:13:48;;;;;;;53.60;31.30;;;9.00;99.90;;;;;;4932126;28;39358;-79
2023/04/08 04:16:15;;;;;;;53.33;31.40;;;9.10;99.90;;;;;;4922514;28;39123;-78
2023/04/08 04:18:41;;;;;;;47.70;29.20;;;9.10;99.90;;;;;;4929512;28;36353;-78
2023/04/08 04:21:07;;;;;;;53.23;31.53;;;9.10;99.90;;;;;;4930640;28;38479;-78
2023/04/08 04:23:33;;;;;;;49.60;30.27;;;9.10;99.90;;;;;;4933491;28;37149;-78
2023/04/08 04:25:59;;;;;;;56.67;32.13;;;9.00;99.90;;;;;;4936659;28;36918;-78
2023/04/08 04:28:25;;;;;;;61.93;34.23;;;9.00;99.90;;;;;;4940190;28;37601;-78
2023/04/08 04:30:51;;;;;;;60.47;32.03;;;9.00;99.90;;;;;;4922975;28;37655;-78
2023/04/08 04:33:17;;;;;;;60.53;33.53;;;9.10;99.90;;;;;;4932677;28;39028;-78
2023/04/08 04:35:43;;;;;;;57.40;32.73;;;9.00;99.90;;;;;;4957185;28;37627;-79
2023/04/08 04:38:11;;;;;;;57.60;32.43;;;9.10;99.90;;;;;;4937286;28;37309;-78
2023/04/08 04:40:40;;;;;;;57.33;33.07;;;9.10;99.90;;;;;;4940060;28;37367;-78
2023/04/08 04:43:06;;;;;;;60.70;33.63;;;9.00;99.90;;;;;;4930883;28;39347;-78
2023/04/08 04:45:32;;;;;;;60.37;34.37;;;9.00;99.90;;;;;;4941543;28;37206;-78
2023/04/08 04:47:58;;;;;;;59.13;33.27;;;8.90;99.90;;;;;;4940681;28;36983;-78
2023/04/08 04:50:25;;;;;;;65.20;33.97;;;8.80;99.90;;;;;;4931462;28;39574;-79
2023/04/08 04:52:51;;;;;;;61.70;34.97;;;8.80;99.90;;;;;;4931756;28;37360;-78
2023/04/08 04:55:17;;;;;;;67.77;35.63;;;8.60;99.90;;;;;;4931885;28;37530;-79
2023/04/08 04:57:43;;;;;;;61.80;33.67;;;8.60;99.90;;;;;;4927122;28;36549;-78
2023/04/08 05:00:09;;;;;;;61.03;33.80;;;8.50;99.90;;;;;;4923935;28;37775;-78
2023/04/08 05:02:35;;;;;;;64.97;35.07;;;8.50;99.90;;;;;;4925202;28;37742;-78
2023/04/08 05:05:02;;;;;;;63.40;33.63;;;8.40;99.90;;;;;;4928788;28;38452;-78
2023/04/08 05:07:28;;;;;;;68.73;35.80;;;8.40;99.90;;;;;;4938922;28;37337;-79
2023/04/08 05:09:54;;;;;;;63.93;34.43;;;8.40;99.90;;;;;;4928126;28;38840;-78
2023/04/08 05:12:20;;;;;;;71.47;37.27;;;8.40;99.90;;;;;;4923801;28;37488;-77
2023/04/08 05:14:46;;;;;;;65.57;33.13;;;8.40;99.90;;;;;;4924676;28;37758;-77
2023/04/08 05:17:12;;;;;;;65.83;34.97;;;8.40;99.90;;;;;;4928537;28;36644;-78
2023/04/08 05:19:39;;;;;;;60.33;34.03;;;8.40;99.90;;;;;;4927677;28;39227;-78
2023/04/08 05:22:05;;;;;;;68.87;36.17;;;8.30;99.90;;;;;;4929588;28;38991;-78
2023/04/08 05:24:31;;;;;;;76.17;36.97;;;8.30;99.90;;;;;;4936616;28;38344;-78
2023/04/08 05:26:57;;;;;;;62.17;32.77;;;8.30;99.90;;;;;;4928098;28;37327;-77
2023/04/08 05:29:26;;;;;;;62.67;34.23;;;8.40;99.90;;;;;;4944849;28;39416;-78
2023/04/08 05:31:52;;;;;;;65.70;33.83;;;8.40;99.90;;;;;;4932441;28;38974;-77
2023/04/08 05:34:21;;;;;;;68.20;34.73;;;8.50;99.90;;;;;;4921944;28;38315;-78
2023/04/08 05:36:50;;;;;;;64.63;34.17;;;8.50;99.90;;;;;;4920559;28;38071;-78
2023/04/08 05:39:18;;;;;;;66.70;36.13;;;8.60;99.90;;;;;;4924010;28;39646;-78
2023/04/08 05:41:44;;;;;;;65.67;35.73;;;8.60;99.90;;;;;;4921166;28;37810;-80
2023/04/08 05:44:11;;;;;;;65.67;35.47;;;8.70;99.90;;;;;;4924451;28;38401;-79
2023/04/08 05:46:37;;;;;;;64.40;34.27;;;8.80;99.90;;;;;;4923975;28;37582;-79
2023/04/08 05:49:03;;;;;;;65.17;35.67;;;8.80;99.90;;;;;;4923909;28;38828;-79
2023/04/08 05:51:30;;;;;;;62.93;34.97;;;8.90;99.90;;;;;;4926592;28;38886;-79
2023/04/08 05:53:56;;;;;;;58.53;33.70;;;8.90;99.90;;;;;;4924744;28;37428;-79
2023/04/08 05:56:22;;;;;;;58.00;33.97;;;8.90;99.90;;;;;;4922608;28;37598;-79
2023/04/08 05:58:48;;;;;;;58.87;34.30;;;8.90;99.90;;;;;;4927268;28;38546;-80
2023/04/08 06:01:14;;;;;;;56.50;32.97;;;9.00;99.90;;;;;;4925320;28;38608;-79
2023/04/08 06:03:40;;;;;;;56.37;33.10;;;9.10;99.90;;;;;;4925644;28;37566;-78
2023/04/08 06:06:13;;;;;;;54.03;32.47;;;9.10;99.90;;;;;;4934027;28;38367;-79
2023/04/08 06:08:39;;;;;;;51.80;31.53;;;9.20;99.90;;;;;;4935850;28;37826;-79
2023/04/08 06:11:06;;;;;;;49.83;29.57;;;9.20;99.90;;;;;;4932539;28;39385;-78
2023/04/08 06:13:32;;;;;;;57.80;33.53;;;9.30;99.90;;;;;;4940960;28;37336;-78
2023/04/08 06:16:08;;;;;;;49.80;31.57;;;9.30;99.90;;;;;;4931317;28;37379;-79
2023/04/08 06:18:34;;;;;;;48.63;30.67;;;9.20;99.90;;;;;;4935648;28;48637;-78
2023/04/08 06:21:00;;;;;;;52.17;31.93;;;9.20;99.90;;;;;;4928993;28;39132;-78
2023/04/08 06:23:26;;;;;;;49.13;30.70;;;9.10;99.90;;;;;;4923568;28;37451;-78
2023/04/08 06:25:53;;;;;;;50.27;32.20;;;9.10;99.90;;;;;;4936998;28;36244;-78
2023/04/08 06:28:19;;;;;;;45.27;30.17;;;9.20;99.90;;;;;;4924887;28;39602;-78
2023/04/08 06:30:45;;;;;;;49.97;31.53;;;9.20;99.90;;;;;;4926535;28;38647;-78
2023/04/08 06:33:11;;;;;;;46.90;29.90;;;9.20;99.90;;;;;;4929222;28;38700;-77
2023/04/08 06:35:37;;;;;;;43.13;29.37;;;9.30;99.90;;;;;;4923186;28;36589;-78
2023/04/08 06:38:03;;;;;;;39.43;27.43;;;9.40;99.90;;;;;;4925631;28;38472;-78
2023/04/08 06:40:29;;;;;;;40.97;27.87;;;9.60;99.90;;;;;;4927203;28;37001;-79
2023/04/08 06:42:55;;;;;;;42.27;28.20;;;9.70;99.90;;;;;;4946253;28;39071;-80
2023/04/08 06:45:21;;;;;;;37.30;26.48;;;9.90;99.90;;;;;;4924893;28;35823;-79
2023/04/08 06:47:48;;;;;;;48.30;29.88;;;9.90;99.90;;;;;;4927732;28;37455;-79
2023/04/08 06:50:14;;;;;;;46.38;31.25;;;10.00;99.90;;;;;;4928271;28;37415;-78
2023/04/08 06:52:40;;;;;;;41.95;28.67;;;10.00;99.90;;;;;;4938300;28;38406;-78
2023/04/08 06:55:06;;;;;;;44.28;30.67;;;9.80;99.90;;;;;;4931712;28;36199;-80
2023/04/08 06:57:32;;;;;;;39.50;28.63;;;9.80;99.90;;;;;;4928949;28;39466;-78
2023/04/08 06:59:59;;;;;;;40.38;29.75;;;9.90;99.90;;;;;;4933574;28;39164;-80
2023/04/08 07:02:25;;;;;;;39.97;29.13;;;9.90;99.90;;;;;;4933126;28;38341;-79
2023/04/08 07:04:52;;;;;;;45.60;31.75;;;10.00;99.90;;;;;;4943330;28;38198;-79
2023/04/08 07:07:18;;;;;;;41.65;30.23;;;10.00;99.90;;;;;;4944209;28;37530;-80
2023/04/08 07:09:45;;;;;;;43.03;30.50;;;10.00;99.90;;;;;;4930681;28;38746;-80
2023/04/08 07:12:12;;;;;;;41.22;30.88;;;10.10;99.90;;;;;;4930666;28;39280;-80
2023/04/08 07:15:07;;;;;;;42.25;30.08;;;10.00;99.90;;;;;;4931196;28;37357;-78
2023/04/08 07:17:33;;;;;;;37.95;28.05;;;9.90;99.90;;;;;;4915714;28;49478;-78
2023/04/08 07:19:59;;;;;;;38.20;29.17;;;9.80;99.90;;;;;;4934911;28;37515;-79
2023/04/08 07:22:25;;;;;;;38.97;29.05;;;9.90;99.90;;;;;;4936298;28;38549;-79
2023/04/08 07:24:52;;;;;;;38.08;27.70;;;9.90;99.90;;;;;;4940463;28;38331;-79
2023/04/08 07:27:18;;;;;;;40.45;28.65;;;9.70;99.90;;;;;;4934154;28;39894;-79
2023/04/08 07:29:44;;;;;;;40.40;28.58;;;9.80;99.90;;;;;;4936017;28;37647;-78
2023/04/08 07:32:10;;;;;;;41.17;29.48;;;9.80;99.90;;;;;;4933252;28;38343;-78
2023/04/08 07:34:38;;;;;;;38.47;27.85;;;9.70;99.90;;;;;;4942784;28;36942;-80
2023/04/08 07:37:04;;;;;;;37.88;27.67;;;9.80;99.90;;;;;;4944256;28;37730;-79
2023/04/08 07:39:30;;;;;;;38.88;28.83;;;9.70;99.90;;;;;;4935255;28;38014;-80
2023/04/08 07:41:56;;;;;;;37.67;27.98;;;9.80;99.90;;;;;;4944011;28;41212;-81
2023/04/08 07:44:25;;;;;;;35.85;26.40;;;9.70;99.90;;;;;;4942984;28;36274;-80
2023/04/08 07:46:51;;;;;;;41.55;28.15;;;9.70;99.90;;;;;;4942147;28;38928;-81
2023/04/08 07:49:17;;;;;;;43.40;28.30;;;9.70;99.90;;;;;;4940684;28;39595;-80
2023/04/08 07:51:43;;;;;;;43.20;30.42;;;9.70;99.90;;;;;;4925096;28;39685;-79
2023/04/08 07:54:11;;;;;;;42.55;27.90;;;9.70;99.90;;;;;;4934713;28;36523;-79
2023/04/08 07:56:43;;;;;;;42.28;29.05;;;9.50;99.90;;;;;;4939798;28;38015;-79
2023/04/08 07:59:12;;;;;;;41.53;29.05;;;9.50;99.90;;;;;;4945121;28;40600;-79
2023/04/08 08:01:39;;;;;;;37.55;26.75;;;9.60;99.90;;;;;;4943255;28;37459;-84
2023/04/08 08:04:05;;;;;;;36.88;25.83;;;9.60;99.90;;;;;;4929838;28;37868;-80
2023/04/08 08:06:31;;;;;;;35.75;25.10;;;9.40;99.90;;;;;;4947120;28;37535;-78
2023/04/08 08:08:58;;;;;;;37.00;24.73;;;9.40;99.90;;;;;;4947656;28;39563;-81
2023/04/08 08:11:26;;;;;;;36.67;25.73;;;9.40;99.90;;;;;;4937632;28;38789;-80
2023/04/08 08:13:52;;;;;;;39.27;24.93;;;9.40;99.90;;;;;;4951024;28;38271;-85
2023/04/08 08:16:21;;;;;;;40.60;25.67;;;9.40;99.90;;;;;;4950745;28;40320;-80
2023/04/08 08:18:47;;;;;;;42.33;25.80;;;9.50;99.90;;;;;;4933807;28;38065;-81
2023/04/08 08:21:13;;;;;;;33.65;23.73;;;9.60;99.90;;;;;;4942735;28;37671;-80
2023/04/08 08:23:39;;;;;;;35.60;23.55;;;9.60;99.90;;;;;;4946820;28;36526;-78
2023/04/08 08:26:11;;;;;;;38.80;25.65;;;9.80;99.90;;;;;;4940425;28;38947;-79
2023/04/08 08:28:38;;;;;;;36.30;24.88;;;10.00;99.90;;;;;;4935532;28;39469;-80
2023/04/08 08:31:05;;;;;;;40.20;26.67;;;10.20;99.90;;;;;;4944911;28;37514;-80
2023/04/08 08:33:32;;;;;;;39.17;26.20;;;10.10;99.90;;;;;;4950845;28;36349;-81
2023/04/08 08:35:58;;;;;;;38.28;26.48;;;10.00;99.90;;;;;;4943044;28;38110;-80
2023/04/08 08:38:25;;;;;;;34.85;24.27;;;10.20;99.90;;;;;;4945715;28;39354;-81
2023/04/08 08:40:56;;;;;;;34.40;24.52;;;10.40;99.90;;;;;;4973023;28;37493;-80
2023/04/08 08:43:27;;;;;;;32.28;23.33;;;10.70;99.90;;;;;;4951548;28;38006;-80
2023/04/08 08:46:00;;;;;;;32.13;23.80;;;11.00;99.90;;;;;;4947963;28;38763;-81
2023/04/08 08:48:26;;;;;;;;;;;11.20;99.90;;;;;;4954812;28;37555;-80
2023/04/08 08:50:52;;;;;;;35.20;25.40;;;11.10;99.90;;;;;;4970374;28;38383;-78
2023/04/08 08:53:19;;;;;;;36.28;25.67;;;11.20;99.90;;;;;;4948115;28;35848;-81
2023/04/08 08:55:45;;;;;;;34.05;25.70;;;11.20;99.90;;;;;;4947242;28;39240;-80
2023/04/08 08:58:12;;;;;;;39.58;28.88;;;11.40;99.90;;;;;;4953056;28;38114;-80
2023/04/08 09:00:41;;;;;;;37.42;27.83;;;11.40;99.90;;;;;;4949605;28;39111;-81
2023/04/08 09:03:20;;;;;;;31.08;24.10;;;11.40;99.90;;;;;;4935870;28;37052;-80
2023/04/08 09:05:51;;;;;;;33.13;23.95;;;11.60;99.90;;;;;;4908059;29;38848;-80
2023/04/08 09:08:25;;;;;;;34.55;25.23;;;11.90;99.90;;;;;;4916824;29;39271;-80
2023/04/08 09:10:52;;;;;;;37.85;28.42;;;12.00;99.90;;;;;;4907284;29;37205;-80
2023/04/08 09:13:18;;;;;;;33.72;25.83;;;12.00;99.90;;;;;;4910978;29;38129;-79
2023/04/08 09:16:04;;;;;;;34.55;25.98;;;12.10;99.90;;;;;;4919819;29;39318;-80
2023/04/08 09:18:32;;;;;;;32.63;25.75;;;12.50;99.90;;;;;;4908664;29;46885;-80
2023/04/08 09:21:00;;;;;;;33.47;26.25;;;12.60;99.90;;;;;;4915792;29;36854;-78
2023/04/08 09:23:41;;;;;;;31.77;25.65;;;12.90;99.90;;;;;;4897400;29;36621;-79
2023/04/08 09:26:09;;;;;;;32.00;26.05;;;13.20;99.90;;;;;;4914352;29;39201;-80
2023/04/08 09:28:36;;;;;;;32.42;26.05;;;13.40;99.90;;;;;;4886824;29;37566;-80
2023/04/08 09:31:27;;;;;;;29.17;24.67;;;13.70;99.90;;;;;;4899330;29;38712;-81
2023/04/08 09:33:55;;;;;;;27.58;22.90;;;13.70;99.90;;;;;;4911798;29;37423;-82
2023/04/08 09:36:22;;;;;;;31.63;25.40;;;14.10;99.90;;;;;;4891341;29;37606;-81
2023/04/08 09:38:48;;;;;;;36.33;25.90;;;13.80;99.90;;;;;;4917290;28;39065;-82
2023/04/08 09:41:16;;;;;;;30.42;24.60;;;13.10;99.90;;;;;;4912515;29;39448;-80
2023/04/08 09:43:48;;;;;;;30.73;25.13;;;12.70;99.90;;;;;;4897437;29;36487;-78
2023/04/08 09:46:18;;;;;;;33.25;26.23;;;12.70;99.90;;;;;;4895256;29;38217;-79
2023/04/08 09:49:12;;;;;;;30.85;25.58;;;12.80;99.90;;;;;;4897236;29;36893;-79
2023/04/08 09:51:45;;;;;;;29.02;24.20;;;13.10;99.90;;;;;;4885710;29;47526;-79
2023/04/08 09:54:18;;;;;;;34.08;25.85;;;13.40;99.90;;;;;;4892932;29;36598;-81
2023/04/08 09:56:59;;;;;;;31.48;26.58;;;13.70;99.90;;;;;;4901829;29;38645;-79
2023/04/08 09:59:33;;;;;;;28.35;24.45;;;13.70;99.90;;;;;;4891443;29;36712;-80
2023/04/08 10:02:05;;;;;;;30.60;24.35;;;14.20;99.90;;;;;;4896275;28;37424;-81
2023/04/08 10:04:34;;;;;;;;;;;14.50;99.90;;;;;;4933234;28;48089;-80
2023/04/08 10:07:05;;;;;;;26.45;23.55;;;14.40;99.90;;;;;;4928175;28;38714;-81
2023/04/08 10:09:32;;;;;;;29.38;24.88;;;14.50;99.90;;;;;;4944066;28;47282;-82
2023/04/08 10:12:00;;;;;;;30.17;24.33;;;15.00;99.90;;;;;;4924379;28;38092;-80
2023/04/08 10:14:27;;;;;;;32.58;26.13;;;15.10;99.90;;;;;;4928659;28;38068;-82
2023/04/08 10:17:28;;;;;;;28.75;24.95;;;14.80;99.90;;;;;;4928584;28;37656;-84
2023/04/08 10:19:54;;;;;;;27.20;24.23;;;15.10;99.90;;;;;;4925258;28;48400;-81
2023/04/08 10:22:47;;;;;;;33.13;26.42;;;15.40;99.90;;;;;;4921591;28;38815;-84
2023/04/08 10:25:31;;;;;;;29.17;25.40;;;15.60;99.90;;;;;;4923034;28;36523;-82
2023/04/08 10:27:59;;;;;;;31.02;25.45;;;15.80;99.90;;;;;;4931424;28;41047;-82
2023/04/08 10:30:30;;;;;;;28.58;24.35;;;15.50;99.90;;;;;;4934632;28;39313;-81
2023/04/08 10:33:23;;;;;;;27.10;24.08;;;15.30;99.90;;;;;;4928933;28;38291;-80
2023/04/08 10:36:14;;;;;;;24.90;21.95;;;14.80;99.90;;;;;;4943199;28;47459;-86
2023/04/08 10:38:46;;;;;;;27.02;22.52;;;14.50;99.90;;;;;;4925937;28;47456;-82
2023/04/08 10:41:12;;;;;;;30.92;23.25;;;14.50;99.90;;;;;;4925527;28;38684;-81
2023/04/08 10:43:39;;;;;;;21.80;19.00;;;14.90;99.90;;;;;;4928140;28;38244;-78
2023/04/08 10:46:05;;;;;;;20.08;17.77;;;14.80;99.90;;;;;;4930805;28;36776;-83
2023/04/08 10:48:31;;;;;;;26.90;21.95;;;14.70;99.90;;;;;;4924673;28;38012;-83
2023/04/08 10:50:59;;;;;;;23.30;20.17;;;15.20;99.90;;;;;;4919248;28;37985;-81
2023/04/08 10:53:36;;;;;;;23.48;20.15;;;15.40;99.90;;;;;;4934807;28;38422;-81
2023/04/08 10:56:09;;;;;;;24.05;20.02;;;15.50;99.90;;;;;;4931972;28;36385;-81
2023/04/08 10:58:46;;;;;;;21.98;16.70;;;15.60;99.90;;;;;;4926840;28;39354;-81
2023/04/08 11:01:12;;;;;;;22.23;17.52;;;15.60;99.90;;;;;;4934965;28;37954;-81
2023/04/08 11:03:38;;;;;;;19.27;16.48;;;15.90;99.90;;;;;;4933932;28;37327;-80
2023/04/08 11:06:06;;;;;;;20.30;18.10;;;16.10;99.90;;;;;;4924080;28;37489;-83
2023/04/08 11:08:34;;;;;;;22.05;17.63;;;16.40;99.90;;;;;;4927407;28;39033;-82
2023/04/08 11:11:00;;;;;;;18.58;16.52;;;16.50;99.90;;;;;;4928028;28;38145;-82
2023/04/08 11:13:27;;;;;;;17.98;15.57;;;16.50;99.90;;;;;;4927838;28;38679;-81
2023/04/08 11:16:05;;;;;;;18.02;16.10;;;16.50;99.90;;;;;;4926988;28;37710;-81
2023/04/08 11:21:21;;;;;;;20.08;17.25;;;16.70;99.90;;;;;;4917742;28;38842;-80
2023/04/08 11:23:49;;;;;;;19.35;16.42;;;16.80;99.90;;;;;;4913644;28;37521;-79
2023/04/08 11:26:16;;;;;;;20.23;18.10;;;16.80;99.90;;;;;;4934182;28;37647;-78
2023/04/08 11:28:44;;;;;;;20.10;17.98;;;16.90;99.90;;;;;;4923811;28;37697;-82
2023/04/08 11:31:12;;;;;;;20.90;17.38;;;16.90;99.90;;;;;;4923692;28;37933;-79
2023/04/08 11:33:44;;;;;;;21.30;19.08;;;17.00;99.90;;;;;;4922882;28;40975;-78
2023/04/08 11:36:11;;;;;;;20.02;17.92;;;17.20;99.90;;;;;;4933342;28;37304;-78
2023/04/08 11:38:41;;;;;;;20.75;18.55;;;17.30;99.90;;;;;;4926845;28;37980;-79
2023/04/08 11:41:07;;;;;;;20.33;18.23;;;17.00;99.90;;;;;;4933131;28;38712;-78
2023/04/08 11:43:35;;;;;;;20.70;18.50;;;16.50;99.90;;;;;;4916745;28;36695;-79
2023/04/08 11:46:09;;;;;;;22.17;18.80;;;16.70;99.90;;;;;;4926921;28;38984;-78
2023/04/08 11:48:35;;;;;;;23.35;18.13;;;17.00;99.90;;;;;;4919842;28;47947;-78
2023/04/08 11:51:09;;;;;;;18.83;16.85;;;17.50;99.90;;;;;;4927789;28;39119;-80
2023/04/08 11:53:36;;;;;;;17.90;16.05;;;17.80;99.90;;;;;;4946710;28;47015;-78
2023/04/08 11:56:23;;;;;;;18.27;15.80;;;17.70;99.90;;;;;;4930404;28;37404;-77
2023/04/08 11:58:51;;;;;;;18.58;15.07;;;17.60;99.90;;;;;;4933942;28;37914;-76
2023/04/08 12:01:17;;;;;;;13.50;12.07;;;17.70;99.90;;;;;;4923459;28;38778;-77
2023/04/08 12:04:13;;;;;;;13.52;11.65;;;17.80;99.90;;;;;;4928793;28;38590;-77
2023/04/08 12:06:42;;;;;;;14.63;11.93;;;17.90;99.90;;;;;;4907340;28;49073;-76
2023/04/08 12:09:08;;;;;;;13.82;12.35;;;18.30;99.90;;;;;;4922016;28;38933;-76
2023/04/08 12:11:34;;;;;;;14.15;11.70;;;18.50;99.90;;;;;;4927226;28;37648;-77
2023/04/08 12:14:00;;;;;;;29.63;21.10;;;18.10;99.90;;;;;;4926430;28;37676;-77
2023/04/08 12:16:26;;;;;;;11.85;10.25;;;18.00;99.90;;;;;;4931671;28;36130;-76
2023/04/08 12:18:52;;;;;;;13.65;10.88;;;18.40;99.90;;;;;;4928936;28;37586;-78
2023/04/08 12:21:18;;;;;;;14.07;12.57;;;18.10;99.90;;;;;;4933340;28;38952;-77
2023/04/08 12:23:44;;;;;;;15.10;13.23;;;18.00;99.90;;;;;;4925210;28;38655;-79
2023/04/08 12:26:12;;;;;;;15.38;13.73;;;17.90;99.90;;;;;;4930514;28;37179;-78
2023/04/08 12:28:38;;;;;;;13.05;10.80;;;17.30;99.90;;;;;;4933865;28;39797;-78
2023/04/08 12:31:04;;;;;;;13.50;11.98;;;17.70;99.90;;;;;;4926685;28;38600;-78
2023/04/08 12:33:30;;;;;;;11.95;10.65;;;17.70;99.90;;;;;;4923311;28;38898;-78
2023/04/08 12:35:57;;;;;;;23.52;19.52;;;17.60;99.90;;;;;;4940940;28;37599;-78
2023/04/08 12:38:25;;;;;;;45.47;36.50;;;17.80;99.90;;;;;;4926143;28;38064;-76
2023/04/08 12:40:52;;;;;;;13.40;9.80;;;17.60;99.90;;;;;;4932517;28;39885;-78
2023/04/08 12:43:18;;;;;;;20.52;14.02;;;18.10;99.90;;;;;;4927560;28;37343;-77
2023/04/08 12:45:44;;;;;;;21.00;13.43;;;18.10;99.90;;;;;;4929407;28;37058;-75